Monday, January 21, 2019, 10:20 PM GMT
Back to Local

CXMY, Malay Falls , N. S.

Location: , , Canada Lat: 44.983
Local Time: 10:20 PM GMT (22:20 GMT) Lon: -62.483
Time Zone: GMT Elev: 131 ft

Show me the last for .
Show Coded

Time T Td Feel RH Dir Speed Gust Alt SLP Vis Weather Sky Remarks
2019-01-21 21:00 29 26 - 88 - - - - - 0 None
2019-01-21 20:00 30 28 - 89 - - - - - 0 None
2019-01-21 19:00 33 29 - 85 - - - - - 0 None
2019-01-21 18:00 32 29 - 90 - - - - - 0 None
2019-01-21 17:00 32 31 - 95 - - - - - 0 None
2019-01-21 16:00 31 32 - 102 - - - - - 0 None
2019-01-21 15:00 31 32 - 101 - - - - - 0 None
2019-01-21 14:00 31 32 - 101 - - - - - 0 None
2019-01-21 13:00 35 34 - 99 - - - - - 0 None
2019-01-21 12:00 37 37 - 98 - - - - - 0 None
2019-01-21 11:00 42 42 - 99 - - - - - 0 None
2019-01-21 10:00 45 45 - 99 - - - - - 0 1-hr Precip Total: 0.03"
2019-01-21 09:00 47 47 - 99 - - - - - 0 1-hr Precip Total: 0.06"
2019-01-21 08:00 48 46 - 92 - - - - - 0 1-hr Precip Total: 0.25"
2019-01-21 07:00 49 50 - 104 - - - - - 0 1-hr Precip Total: 0.26"
2019-01-21 06:00 50 50 - 98 - - - - - 0 1-hr Precip Total: 0.14"
2019-01-21 05:00 51 50 - 98 - - - - - 0 1-hr Precip Total: 0.11"
2019-01-21 04:00 49 48 - 97 - - - - - 0 1-hr Precip Total: 0.44"
2019-01-21 03:00 49 48 - 97 - - - - - 0 1-hr Precip Total: 0.17"
2019-01-21 02:00 47 47 - 97 - - - - - 0 1-hr Precip Total: 0.12"
2019-01-21 01:00 47 46 - 97 - - - - - 0 None
2019-01-21 00:00 47 47 - 97 - - - - - 0 None
2019-01-20 23:00 47 47 - 97 - - - - - 0 1-hr Precip Total: 0.01"

Support USWX by starting your Amazon purchase here.